createdAt,value
2022-11-25T00:00:34.140Z,9.56
2022-11-25T00:01:34.212Z,9.58
2022-11-25T00:02:34.337Z,9.59
2022-11-25T00:03:34.505Z,9.60
2022-11-25T00:04:34.790Z,9.60
2022-11-25T00:05:34.737Z,9.58
2022-11-25T00:06:34.839Z,9.58
2022-11-25T00:07:34.987Z,9.57
2022-11-25T00:08:35.238Z,9.58
2022-11-25T00:09:35.228Z,9.58
2022-11-25T00:10:35.410Z,9.59
2022-11-25T00:11:35.555Z,9.61
2022-11-25T00:12:35.595Z,9.62
2022-11-25T00:13:35.745Z,9.64
2022-11-25T00:14:36.222Z,9.66
2022-11-25T00:15:36.047Z,9.67
2022-11-25T00:16:36.265Z,9.67
2022-11-25T00:17:36.293Z,9.68
2022-11-25T00:18:36.413Z,9.68
2022-11-25T00:19:36.573Z,9.69
2022-11-25T00:20:36.771Z,9.70
2022-11-25T00:21:36.863Z,9.71
2022-11-25T00:22:37.025Z,9.71
2022-11-25T00:23:37.167Z,9.71
2022-11-25T00:24:37.471Z,9.71
2022-11-25T00:25:37.452Z,9.71
2022-11-25T00:26:37.541Z,9.71
2022-11-25T00:27:37.693Z,9.71
2022-11-25T00:28:37.946Z,9.72
2022-11-25T00:29:37.991Z,9.74
2022-11-25T00:30:38.207Z,9.76
2022-11-25T00:31:38.323Z,9.77
2022-11-25T00:32:38.357Z,9.79
2022-11-25T00:33:38.505Z,9.80
2022-11-25T00:34:38.665Z,9.80
2022-11-25T00:35:38.800Z,9.81
2022-11-25T00:36:38.925Z,9.81
2022-11-25T00:37:39.019Z,9.82
2022-11-25T00:38:39.159Z,9.84
2022-11-25T00:39:39.325Z,9.85
2022-11-25T00:40:39.489Z,9.85
2022-11-25T00:41:39.581Z,9.86
2022-11-25T00:42:39.724Z,9.86
2022-11-25T00:43:39.847Z,9.86
2022-11-25T00:44:40.716Z,9.86
2022-11-25T00:45:40.201Z,9.86
2022-11-25T00:46:40.238Z,9.86
2022-11-25T00:47:40.367Z,9.86
2022-11-25T00:48:40.567Z,9.86
2022-11-25T00:49:40.648Z,9.86
2022-11-25T00:50:40.825Z,9.87
2022-11-25T00:51:40.898Z,9.87
2022-11-25T00:52:41.054Z,9.87
2022-11-25T00:53:41.194Z,9.86
2022-11-25T00:54:41.304Z,9.84
2022-11-25T00:55:41.487Z,9.83
2022-11-25T00:56:41.554Z,9.83
2022-11-25T00:57:41.705Z,9.82
2022-11-25T00:58:41.810Z,9.82
2022-11-25T00:59:41.980Z,9.83
2022-11-25T01:00:42.128Z,9.85
2022-11-25T01:01:42.204Z,9.87
2022-11-25T01:02:42.380Z,9.88
2022-11-25T01:03:42.474Z,9.89
2022-11-25T01:04:42.616Z,9.91
2022-11-25T01:05:42.782Z,9.92
2022-11-25T01:06:42.890Z,9.94
2022-11-25T01:07:43.046Z,9.95
2022-11-25T01:08:43.182Z,9.96
2022-11-25T01:09:43.221Z,9.97
2022-11-25T01:10:43.402Z,9.98
2022-11-25T01:11:43.500Z,9.99
2022-11-25T01:12:43.631Z,10.00
2022-11-25T01:13:43.734Z,10.01
2022-11-25T01:14:43.882Z,10.02
2022-11-25T01:15:44.096Z,10.02
2022-11-25T01:16:44.175Z,10.03
2022-11-25T01:17:44.241Z,10.03
2022-11-25T01:18:44.388Z,10.04
2022-11-25T01:19:44.548Z,10.05
2022-11-25T01:20:44.702Z,10.06
2022-11-25T01:21:44.809Z,10.08
2022-11-25T01:22:44.959Z,10.09
2022-11-25T01:23:45.048Z,10.09
2022-11-25T01:24:45.137Z,10.08
2022-11-25T01:25:45.411Z,10.08
2022-11-25T01:26:45.384Z,10.08
2022-11-25T01:27:45.536Z,10.07
2022-11-25T01:28:45.706Z,10.06
2022-11-25T01:29:45.763Z,10.05
2022-11-25T01:30:45.866Z,10.04
2022-11-25T01:31:46.038Z,10.03
2022-11-25T01:32:46.105Z,10.02
2022-11-25T01:33:46.260Z,10.02
2022-11-25T01:34:46.413Z,10.02
2022-11-25T01:35:46.524Z,10.02
2022-11-25T01:36:46.653Z,10.02
2022-11-25T01:37:46.784Z,10.02
2022-11-25T01:38:46.893Z,10.02
2022-11-25T01:39:46.986Z,10.02
2022-11-25T01:40:47.174Z,10.02
2022-11-25T01:41:47.189Z,10.02
2022-11-25T01:42:47.331Z,10.02
2022-11-25T01:43:47.468Z,10.02
2022-11-25T01:44:47.617Z,10.03
2022-11-25T01:45:47.868Z,10.03
2022-11-25T01:46:47.888Z,10.04
2022-11-25T01:47:47.982Z,10.04
2022-11-25T01:48:48.241Z,10.05
2022-11-25T01:49:48.235Z,10.06
2022-11-25T01:50:48.370Z,10.07
2022-11-25T01:51:48.485Z,10.08
2022-11-25T01:52:48.595Z,10.08
2022-11-25T01:53:48.741Z,10.08
2022-11-25T01:54:48.849Z,10.07
2022-11-25T01:55:49.030Z,10.07
2022-11-25T01:56:49.140Z,10.06
2022-11-25T01:57:49.219Z,10.06
2022-11-25T01:58:49.328Z,10.05
2022-11-25T01:59:49.497Z,10.04
2022-11-25T02:00:49.638Z,10.03
2022-11-25T02:01:49.824Z,10.03
2022-11-25T02:02:50.008Z,10.03
2022-11-25T02:03:50.037Z,10.04
2022-11-25T02:04:50.199Z,10.04
2022-11-25T02:05:50.275Z,10.03
2022-11-25T02:06:50.445Z,10.03
2022-11-25T02:07:50.613Z,10.03
2022-11-25T02:08:50.746Z,10.03
2022-11-25T02:09:50.821Z,10.03
2022-11-25T02:10:50.895Z,10.03
2022-11-25T02:11:51.065Z,10.04
2022-11-25T02:12:51.176Z,10.05
2022-11-25T02:13:51.326Z,10.06
2022-11-25T02:14:51.475Z,10.07
2022-11-25T02:15:51.617Z,10.07
2022-11-25T02:16:51.947Z,10.07
2022-11-25T02:17:51.865Z,10.07
2022-11-25T02:18:52.025Z,10.06
2022-11-25T02:19:52.130Z,10.05
2022-11-25T02:20:52.262Z,10.02
2022-11-25T02:21:52.472Z,10.01
2022-11-25T02:22:52.502Z,9.99
2022-11-25T02:23:52.632Z,9.97
2022-11-25T02:24:52.762Z,9.96
2022-11-25T02:25:52.915Z,9.95
2022-11-25T02:26:53.085Z,9.95
2022-11-25T02:27:53.203Z,9.96
2022-11-25T02:28:53.390Z,9.96
2022-11-25T02:29:53.461Z,9.96
2022-11-25T02:30:53.538Z,9.96
2022-11-25T02:31:53.763Z,9.96
2022-11-25T02:32:53.824Z,9.96
2022-11-25T02:33:53.951Z,9.95
2022-11-25T02:34:54.078Z,9.94
2022-11-25T02:35:54.229Z,9.93
2022-11-25T02:36:54.425Z,9.92
2022-11-25T02:37:54.521Z,9.92
2022-11-25T02:38:54.568Z,9.92
2022-11-25T02:39:54.714Z,9.92
2022-11-25T02:40:54.847Z,9.92
2022-11-25T02:41:55.017Z,9.91
2022-11-25T02:42:55.117Z,9.91
2022-11-25T02:43:55.227Z,9.90
2022-11-25T02:44:55.384Z,9.90
2022-11-25T02:45:55.541Z,9.90
2022-11-25T02:46:55.687Z,9.90
2022-11-25T02:47:55.739Z,9.90
2022-11-25T02:49:11.423Z,9.91
2022-11-25T02:49:57.004Z,9.91
2022-11-25T02:50:56.117Z,9.90
2022-11-25T02:51:56.265Z,9.90
2022-11-25T02:52:56.388Z,9.91
2022-11-25T02:53:56.494Z,9.91
2022-11-25T02:54:56.626Z,9.91
2022-11-25T02:55:56.765Z,9.91
2022-11-25T02:56:56.914Z,9.90
2022-11-25T02:57:57.043Z,9.90
2022-11-25T02:58:57.203Z,9.89
2022-11-25T02:59:57.303Z,9.89
2022-11-25T03:00:57.507Z,9.89
2022-11-25T03:01:57.692Z,9.90
2022-11-25T03:02:57.712Z,9.89
2022-11-25T03:03:57.862Z,9.87
2022-11-25T03:04:57.982Z,9.86
2022-11-25T03:05:58.120Z,9.85
2022-11-25T03:06:58.264Z,9.85
2022-11-25T03:07:58.401Z,9.83
2022-11-25T03:08:58.512Z,9.80
2022-11-25T03:09:58.611Z,9.78
2022-11-25T03:10:58.740Z,9.76
2022-11-25T03:11:58.950Z,9.74
2022-11-25T03:12:58.968Z,9.72
2022-11-25T03:13:59.099Z,9.70
2022-11-25T03:14:59.230Z,9.68
2022-11-25T03:15:59.372Z,9.66
2022-11-25T03:16:59.657Z,9.61
2022-11-25T03:17:59.629Z,9.55
2022-11-25T03:18:59.759Z,9.47
2022-11-25T03:19:59.898Z,9.40
2022-11-25T03:21:00.048Z,9.33
2022-11-25T03:22:00.241Z,9.26
2022-11-25T03:23:00.331Z,9.20
2022-11-25T03:24:00.487Z,9.16
2022-11-25T03:25:00.597Z,9.12
2022-11-25T03:26:00.736Z,9.10
2022-11-25T03:27:00.914Z,9.08
2022-11-25T03:28:01.029Z,9.07
2022-11-25T03:29:01.156Z,9.07
2022-11-25T03:30:01.267Z,9.06
2022-11-25T03:31:01.377Z,9.06
2022-11-25T03:32:04.308Z,9.06
2022-11-25T03:33:02.639Z,9.04
2022-11-25T03:34:01.763Z,9.03
2022-11-25T03:35:01.895Z,9.01
2022-11-25T03:36:02.025Z,9.00
2022-11-25T03:37:02.231Z,8.98
2022-11-25T03:38:02.302Z,8.96
2022-11-25T03:39:02.424Z,8.94
2022-11-25T03:40:02.561Z,8.92
2022-11-25T03:41:02.723Z,8.90
2022-11-25T03:42:02.935Z,8.89
2022-11-25T03:43:02.983Z,8.88
2022-11-25T03:44:03.092Z,8.88
2022-11-25T03:45:03.235Z,8.88
2022-11-25T03:46:03.420Z,8.89
2022-11-25T03:47:03.523Z,8.90
2022-11-25T03:48:03.614Z,8.90
2022-11-25T03:49:03.787Z,8.90
2022-11-25T03:50:03.900Z,8.90
2022-11-25T03:51:04.012Z,8.91
2022-11-25T03:52:04.194Z,8.91
2022-11-25T03:53:04.311Z,8.90
2022-11-25T03:54:04.397Z,8.90
2022-11-25T03:55:04.529Z,8.90
2022-11-25T03:56:04.673Z,8.89
2022-11-25T03:57:04.872Z,8.89
2022-11-25T03:58:04.960Z,8.88
2022-11-25T03:59:05.089Z,8.88
2022-11-25T04:00:05.242Z,8.88
2022-11-25T04:01:05.369Z,8.86
2022-11-25T04:02:05.541Z,8.85
2022-11-25T04:03:05.591Z,8.83
2022-11-25T04:04:05.718Z,8.83
2022-11-25T04:05:05.913Z,8.83
2022-11-25T04:06:05.998Z,8.83
2022-11-25T04:07:06.135Z,8.84
2022-11-25T04:08:06.350Z,8.84
2022-11-25T04:09:06.405Z,8.83
2022-11-25T04:10:06.568Z,8.82
2022-11-25T04:11:06.666Z,8.81
2022-11-25T04:12:06.829Z,8.80
2022-11-25T04:13:06.966Z,8.78
2022-11-25T04:14:07.063Z,8.76
2022-11-25T04:15:07.207Z,8.75
2022-11-25T04:16:07.324Z,8.74
2022-11-25T04:17:07.532Z,8.73
2022-11-25T04:18:07.633Z,8.73
2022-11-25T04:19:07.743Z,8.73
2022-11-25T04:20:07.883Z,8.74
2022-11-25T04:21:08.012Z,8.74
2022-11-25T04:22:08.154Z,8.75
2022-11-25T04:23:08.307Z,8.75
2022-11-25T04:24:08.452Z,8.74
2022-11-25T04:25:08.541Z,8.74
2022-11-25T04:26:08.691Z,8.74
2022-11-25T04:27:08.803Z,8.73
2022-11-25T04:28:08.953Z,8.73
2022-11-25T04:29:09.050Z,8.73
2022-11-25T04:30:09.214Z,8.73
2022-11-25T04:31:09.386Z,8.73
2022-11-25T04:32:09.481Z,8.73
2022-11-25T04:33:09.572Z,8.73
2022-11-25T04:34:09.661Z,8.71
2022-11-25T04:35:09.788Z,8.69
2022-11-25T04:36:09.918Z,8.67
2022-11-25T04:37:10.029Z,8.66
2022-11-25T04:38:10.218Z,8.66
2022-11-25T04:39:10.250Z,8.65
2022-11-25T04:40:10.361Z,8.65
2022-11-25T04:41:10.468Z,8.65
2022-11-25T04:42:10.582Z,8.65
2022-11-25T04:43:10.945Z,8.63
2022-11-25T04:44:10.894Z,8.61
2022-11-25T04:45:26.164Z,8.59
2022-11-25T04:46:14.303Z,8.59
2022-11-25T04:47:11.213Z,8.57
2022-11-25T04:48:11.256Z,8.57
2022-11-25T04:49:11.359Z,8.57
2022-11-25T04:50:11.493Z,8.57
2022-11-25T04:51:11.635Z,8.56
2022-11-25T04:52:11.705Z,8.56
2022-11-25T04:53:11.834Z,8.55
2022-11-25T04:54:17.189Z,8.54
2022-11-25T04:55:13.046Z,8.53
2022-11-25T04:56:12.196Z,8.51
2022-11-25T04:57:12.305Z,8.50
2022-11-25T04:58:12.555Z,8.50
2022-11-25T04:59:12.534Z,8.51
2022-11-25T05:00:12.652Z,8.51
2022-11-25T05:01:12.795Z,8.51
2022-11-25T05:02:12.909Z,8.50
2022-11-25T05:03:13.003Z,8.50
2022-11-25T05:04:13.207Z,8.50
2022-11-25T05:05:13.222Z,8.50
2022-11-25T05:06:13.323Z,8.50
2022-11-25T05:07:13.460Z,8.49
2022-11-25T05:08:13.581Z,8.49
2022-11-25T05:09:13.691Z,8.48
2022-11-25T05:10:13.775Z,8.47
2022-11-25T05:11:13.892Z,8.47
2022-11-25T05:12:14.011Z,8.48
2022-11-25T05:13:14.161Z,8.47
2022-11-25T05:14:14.272Z,8.47
2022-11-25T05:15:14.351Z,8.46
2022-11-25T05:16:14.465Z,8.47
2022-11-25T05:17:14.589Z,8.47
2022-11-25T05:18:14.707Z,8.46
2022-11-25T05:19:14.840Z,8.46
2022-11-25T05:20:14.884Z,8.46
2022-11-25T05:21:14.991Z,8.46
2022-11-25T05:22:15.130Z,8.46
2022-11-25T05:23:15.242Z,8.46
2022-11-25T05:24:15.440Z,8.47
2022-11-25T05:25:15.467Z,8.47
2022-11-25T05:26:15.569Z,8.47
2022-11-25T05:27:15.706Z,8.47
2022-11-25T05:28:15.807Z,8.46
2022-11-25T05:29:15.907Z,8.46
2022-11-25T05:30:16.016Z,8.45
2022-11-25T05:31:16.197Z,8.45
2022-11-25T05:32:16.246Z,8.44
2022-11-25T05:33:16.378Z,8.44
2022-11-25T05:34:16.489Z,8.42
2022-11-25T05:35:16.599Z,8.41
2022-11-25T05:36:16.684Z,8.40
2022-11-25T05:37:19.909Z,8.39
2022-11-25T05:38:17.968Z,8.37
2022-11-25T05:39:17.035Z,8.36
2022-11-25T05:40:17.133Z,8.35
2022-11-25T05:41:17.278Z,8.35
2022-11-25T05:42:17.375Z,8.35
2022-11-25T05:43:17.482Z,8.34
2022-11-25T05:44:22.945Z,8.34
2022-11-25T05:45:17.693Z,8.33
2022-11-25T05:46:17.849Z,8.32
2022-11-25T05:47:17.952Z,8.32
2022-11-25T05:48:18.012Z,8.32
2022-11-25T05:49:18.122Z,8.32
2022-11-25T05:50:18.222Z,8.32
2022-11-25T05:51:18.362Z,8.31
2022-11-25T05:52:18.501Z,8.30
2022-11-25T05:53:18.570Z,8.29
2022-11-25T05:54:18.682Z,8.28
2022-11-25T05:55:18.801Z,8.27
2022-11-25T05:56:18.901Z,8.25
2022-11-25T05:57:19.051Z,8.24
2022-11-25T05:58:19.109Z,8.23
2022-11-25T05:59:19.246Z,8.21
2022-11-25T06:00:25.014Z,8.19
2022-11-25T06:01:20.476Z,8.17
2022-11-25T06:02:19.633Z,8.16
2022-11-25T06:03:19.745Z,8.15
2022-11-25T06:04:19.867Z,8.14
2022-11-25T06:05:19.922Z,8.13
2022-11-25T06:06:20.027Z,8.12
2022-11-25T06:07:20.244Z,8.11
2022-11-25T06:08:20.237Z,8.11
2022-11-25T06:09:20.357Z,8.10
2022-11-25T06:10:20.457Z,8.10
2022-11-25T06:11:20.558Z,8.09
2022-11-25T06:12:20.688Z,8.08
2022-11-25T06:13:20.835Z,8.07
2022-11-25T06:14:20.905Z,8.06
2022-11-25T06:15:21.006Z,8.05
2022-11-25T06:16:21.156Z,8.04
2022-11-25T06:17:21.292Z,8.03
2022-11-25T06:18:21.493Z,8.03
2022-11-25T06:19:21.464Z,8.02
2022-11-25T06:20:21.575Z,8.02
2022-11-25T06:21:21.675Z,8.01
2022-11-25T06:22:21.805Z,8.00
2022-11-25T06:23:21.902Z,8.00
2022-11-25T06:24:22.061Z,8.00
2022-11-25T06:25:22.112Z,8.00
2022-11-25T06:26:22.226Z,7.99
2022-11-25T06:27:22.382Z,7.99
2022-11-25T06:28:22.453Z,7.99
2022-11-25T06:29:22.563Z,7.99
2022-11-25T06:30:22.676Z,7.98
2022-11-25T06:31:22.823Z,7.98
2022-11-25T06:32:22.900Z,7.97
2022-11-25T06:33:23.052Z,7.97
2022-11-25T06:34:23.130Z,7.97
2022-11-25T06:35:23.232Z,7.97
2022-11-25T06:36:23.342Z,7.97
2022-11-25T06:37:23.512Z,7.96
2022-11-25T06:38:23.598Z,7.96
2022-11-25T06:39:23.700Z,7.95
2022-11-25T06:40:23.828Z,7.95
2022-11-25T06:41:23.929Z,7.95
2022-11-25T06:42:24.077Z,7.95
2022-11-25T06:43:24.177Z,7.96
2022-11-25T06:44:24.321Z,7.96
2022-11-25T06:45:24.389Z,7.95
2022-11-25T06:46:25.565Z,7.95
2022-11-25T06:47:24.618Z,7.93
2022-11-25T06:48:24.679Z,7.92
2022-11-25T06:49:24.776Z,7.91
2022-11-25T06:50:24.886Z,7.90
2022-11-25T06:51:25.015Z,7.89
2022-11-25T06:52:25.134Z,7.88
2022-11-25T06:53:25.275Z,7.88
2022-11-25T06:54:25.353Z,7.87
2022-11-25T06:55:25.522Z,7.87
2022-11-25T06:56:25.583Z,7.86
2022-11-25T06:57:25.686Z,7.85
2022-11-25T06:58:35.288Z,7.84
2022-11-25T06:59:26.907Z,7.83
2022-11-25T07:00:26.014Z,7.83
2022-11-25T07:01:26.224Z,7.82
2022-11-25T07:02:26.313Z,7.82
2022-11-25T07:03:26.454Z,7.82
2022-11-25T07:04:26.512Z,7.82
2022-11-25T07:05:26.562Z,7.82
2022-11-25T07:06:26.690Z,7.81
2022-11-25T07:07:26.874Z,7.80
2022-11-25T07:08:32.303Z,7.79
2022-11-25T07:09:28.004Z,7.78
2022-11-25T07:10:27.108Z,7.76
2022-11-25T07:11:27.250Z,7.74
2022-11-25T07:12:27.374Z,7.74
2022-11-25T07:13:27.540Z,7.74
2022-11-25T07:14:27.599Z,7.74
2022-11-25T07:15:27.714Z,7.75
2022-11-25T07:16:27.890Z,7.76
2022-11-25T07:17:27.987Z,7.77
2022-11-25T07:18:28.120Z,7.78
2022-11-25T07:19:28.179Z,7.78
2022-11-25T07:20:28.374Z,7.77
2022-11-25T07:21:28.411Z,7.77
2022-11-25T07:22:28.556Z,7.77
2022-11-25T07:23:28.650Z,7.76
2022-11-25T07:24:28.814Z,7.77
2022-11-25T07:25:30.846Z,7.76
2022-11-25T07:26:28.965Z,7.76
2022-11-25T07:27:29.121Z,7.76
2022-11-25T07:28:29.175Z,7.75
2022-11-25T07:30:10.366Z,7.74
2022-11-25T07:31:21.863Z,7.73
2022-11-25T07:31:33.042Z,7.73
2022-11-25T07:32:29.668Z,7.72
2022-11-25T07:33:29.781Z,7.71
2022-11-25T07:34:29.875Z,7.71
2022-11-25T07:35:29.987Z,7.71
2022-11-25T07:36:30.094Z,7.70
2022-11-25T07:37:30.230Z,7.70
2022-11-25T07:38:30.354Z,7.70
2022-11-25T07:39:30.422Z,7.70
2022-11-25T07:40:30.531Z,7.70
2022-11-25T07:41:30.644Z,7.70
2022-11-25T07:42:30.815Z,7.70
2022-11-25T07:43:30.862Z,7.71
2022-11-25T07:44:31.025Z,7.72
2022-11-25T07:45:31.082Z,7.72
2022-11-25T07:46:31.240Z,7.72
2022-11-25T07:47:31.332Z,7.72
2022-11-25T07:48:31.425Z,7.72
2022-11-25T07:49:31.570Z,7.72
2022-11-25T07:50:31.671Z,7.72
2022-11-25T07:51:31.780Z,7.73
2022-11-25T07:52:31.892Z,7.75
2022-11-25T07:53:32.020Z,7.76
2022-11-25T07:54:32.147Z,7.77
2022-11-25T07:55:32.240Z,7.77
2022-11-25T07:56:32.370Z,7.78
2022-11-25T07:57:32.491Z,7.78
2022-11-25T07:58:32.641Z,7.77
2022-11-25T07:59:32.696Z,7.77
2022-11-25T08:00:32.828Z,7.78
2022-11-25T08:01:32.963Z,7.78
2022-11-25T08:02:33.084Z,7.78
2022-11-25T08:03:33.189Z,7.78
2022-11-25T08:04:33.339Z,7.79
2022-11-25T08:05:33.399Z,7.79
2022-11-25T08:06:33.514Z,7.80
2022-11-25T08:07:36.678Z,7.80
2022-11-25T08:08:33.821Z,7.81
2022-11-25T08:09:34.178Z,7.81
2022-11-25T08:10:34.014Z,7.81
2022-11-25T08:11:34.077Z,7.81
2022-11-25T08:12:34.199Z,7.82
2022-11-25T08:13:34.339Z,7.83
2022-11-25T08:14:34.435Z,7.85
2022-11-25T08:15:34.627Z,7.86
2022-11-25T08:16:34.712Z,7.87
2022-11-25T08:17:34.747Z,7.87
2022-11-25T08:18:34.955Z,7.89
2022-11-25T08:19:35.544Z,7.90
2022-11-25T08:20:35.113Z,7.91
2022-11-25T08:21:35.271Z,7.92
2022-11-25T08:22:35.336Z,7.92
2022-11-25T08:23:35.454Z,7.93
2022-11-25T08:24:35.674Z,7.94
2022-11-25T08:25:35.662Z,7.96
2022-11-25T08:26:35.810Z,7.97
2022-11-25T08:27:35.893Z,7.98
2022-11-25T08:28:36.050Z,8.00
2022-11-25T08:29:36.360Z,8.02
2022-11-25T08:30:36.278Z,8.03
2022-11-25T08:31:36.449Z,8.04
2022-11-25T08:32:36.491Z,8.06
2022-11-25T08:33:36.748Z,8.07
2022-11-25T08:34:36.709Z,8.07
2022-11-25T08:35:36.800Z,8.08
2022-11-25T08:36:36.909Z,8.10
2022-11-25T08:37:37.045Z,8.11
2022-11-25T08:38:37.192Z,8.13
2022-11-25T08:39:52.376Z,8.14
2022-11-25T08:40:38.388Z,8.15
2022-11-25T08:41:37.489Z,8.16
2022-11-25T08:42:37.627Z,8.18
2022-11-25T08:43:37.737Z,8.19
2022-11-25T08:44:37.908Z,8.19
2022-11-25T08:45:37.948Z,8.19
2022-11-25T08:46:38.123Z,8.20
2022-11-25T08:47:38.216Z,8.21
2022-11-25T08:48:38.315Z,8.21
2022-11-25T08:49:41.140Z,8.22
2022-11-25T08:50:38.544Z,8.23
2022-11-25T08:51:38.655Z,8.24
2022-11-25T08:52:38.777Z,8.25
2022-11-25T08:53:38.897Z,8.27
2022-11-25T08:54:39.037Z,8.28
2022-11-25T08:55:39.075Z,8.29
2022-11-25T08:56:39.204Z,8.31
2022-11-25T08:57:39.328Z,8.33
2022-11-25T08:58:39.425Z,8.35
2022-11-25T08:59:39.930Z,8.36
2022-11-25T09:00:39.643Z,8.36
2022-11-25T09:01:39.852Z,8.37
2022-11-25T09:02:39.926Z,8.38
2022-11-25T09:03:40.027Z,8.39
2022-11-25T09:04:40.142Z,8.40
2022-11-25T09:05:40.252Z,8.42
2022-11-25T09:06:40.382Z,8.43
2022-11-25T09:07:40.648Z,8.45
2022-11-25T09:08:40.658Z,8.47
2022-11-25T09:09:40.882Z,8.49
2022-11-25T09:10:40.922Z,8.50
2022-11-25T09:11:41.131Z,8.52
2022-11-25T09:12:41.177Z,8.55
2022-11-25T09:13:41.329Z,8.57
2022-11-25T09:14:41.443Z,8.60
2022-11-25T09:15:41.595Z,8.62
2022-11-25T09:16:41.797Z,8.64
2022-11-25T09:17:41.803Z,8.67
2022-11-25T09:18:41.977Z,8.70
2022-11-25T09:19:42.059Z,8.73
2022-11-25T09:20:42.203Z,8.74
2022-11-25T09:21:42.344Z,8.76
2022-11-25T09:22:42.499Z,8.78
2022-11-25T09:23:42.639Z,8.80
2022-11-25T09:24:42.816Z,8.82
2022-11-25T09:25:42.942Z,8.85
2022-11-25T09:26:43.005Z,8.86
2022-11-25T09:27:43.132Z,8.87
2022-11-25T09:28:43.318Z,8.88
2022-11-25T09:29:43.392Z,8.90
2022-11-25T09:30:43.543Z,8.91
2022-11-25T09:31:43.692Z,8.95
2022-11-25T09:32:43.755Z,8.99
2022-11-25T09:33:43.925Z,9.02
2022-11-25T09:34:44.016Z,9.03
2022-11-25T09:35:44.138Z,9.04
2022-11-25T09:36:44.274Z,9.06
2022-11-25T09:37:44.549Z,9.09
2022-11-25T09:38:44.589Z,9.13
2022-11-25T09:39:44.744Z,9.17
2022-11-25T09:40:44.842Z,9.23
2022-11-25T09:41:44.954Z,9.27
2022-11-25T09:42:45.092Z,9.30
2022-11-25T09:43:45.260Z,9.34
2022-11-25T09:44:45.352Z,9.38
2022-11-25T09:45:45.490Z,9.40
2022-11-25T09:46:45.685Z,9.42
2022-11-25T09:47:48.958Z,9.42
2022-11-25T09:48:46.907Z,9.39
2022-11-25T09:49:46.029Z,9.36
2022-11-25T09:50:46.168Z,9.34
2022-11-25T09:51:46.299Z,9.33
2022-11-25T09:52:46.430Z,9.33
2022-11-25T09:53:46.579Z,9.33
2022-11-25T09:54:46.709Z,9.33
2022-11-25T09:55:46.836Z,9.32
2022-11-25T09:56:46.980Z,9.29
2022-11-25T09:57:47.118Z,9.27
2022-11-25T09:58:47.427Z,9.26
2022-11-25T09:59:47.405Z,9.24
2022-11-25T10:00:47.537Z,9.24
2022-11-25T10:01:47.822Z,9.23
2022-11-25T10:02:47.906Z,9.22
2022-11-25T10:03:47.989Z,9.21
2022-11-25T10:04:48.066Z,9.19
2022-11-25T10:05:48.189Z,9.15
2022-11-25T10:06:53.536Z,9.13
2022-11-25T10:07:49.440Z,9.12
2022-11-25T10:08:48.565Z,9.14
2022-11-25T10:09:48.676Z,9.19
2022-11-25T10:10:48.776Z,9.25
2022-11-25T10:11:48.915Z,9.30
2022-11-25T10:12:49.044Z,9.33
2022-11-25T10:13:49.242Z,9.37
2022-11-25T10:14:49.323Z,9.39
2022-11-25T10:15:49.475Z,9.41
2022-11-25T10:16:51.544Z,9.43
2022-11-25T10:17:49.667Z,9.44
2022-11-25T10:18:49.802Z,9.45
2022-11-25T10:19:49.885Z,9.45
2022-11-25T10:20:50.029Z,9.43
2022-11-25T10:21:50.183Z,9.42
2022-11-25T10:22:50.312Z,9.41
2022-11-25T10:23:50.493Z,9.39
2022-11-25T10:24:50.609Z,9.39
2022-11-25T10:25:50.718Z,9.41
2022-11-25T10:26:50.815Z,9.41
2022-11-25T10:27:50.979Z,9.40
2022-11-25T10:28:51.082Z,9.40
2022-11-25T10:29:51.212Z,9.42
2022-11-25T10:30:51.342Z,9.44
2022-11-25T10:31:51.489Z,9.46
2022-11-25T10:32:51.558Z,9.50
2022-11-25T10:33:51.719Z,9.53
2022-11-25T10:34:51.829Z,9.57
2022-11-25T10:35:51.969Z,9.58
2022-11-25T10:36:52.139Z,9.58
2022-11-25T10:37:52.239Z,9.60
2022-11-25T10:38:52.448Z,9.62
2022-11-25T10:39:52.548Z,9.64
2022-11-25T10:40:52.641Z,9.67
2022-11-25T10:41:52.768Z,9.68
2022-11-25T10:42:52.909Z,9.69
2022-11-25T10:43:53.068Z,9.71
2022-11-25T10:44:53.195Z,9.70
2022-11-25T10:45:53.299Z,9.70
2022-11-25T10:47:54.628Z,9.68
2022-11-25T10:48:53.686Z,9.65
2022-11-25T10:49:53.815Z,9.63
2022-11-25T10:50:53.950Z,9.61
2022-11-25T10:51:54.092Z,9.60
2022-11-25T10:52:54.218Z,9.61
2022-11-25T10:53:54.375Z,9.64
2022-11-25T10:54:54.477Z,9.67
2022-11-25T10:55:54.606Z,9.71
2022-11-25T10:56:54.766Z,9.74
2022-11-25T10:57:54.874Z,9.75
2022-11-25T10:58:55.039Z,9.74
2022-11-25T10:59:55.135Z,9.72
2022-11-25T11:00:55.282Z,9.72
2022-11-25T11:01:55.469Z,9.72
2022-11-25T11:02:55.566Z,9.71
2022-11-25T11:03:55.737Z,9.71
2022-11-25T11:04:55.837Z,9.72
2022-11-25T11:05:55.976Z,9.75
2022-11-25T11:06:56.104Z,9.78
2022-11-25T11:07:56.283Z,9.81
2022-11-25T11:08:56.362Z,9.84
2022-11-25T11:09:56.492Z,9.90
2022-11-25T11:10:57.401Z,9.96
2022-11-25T11:11:56.750Z,10.02
2022-11-25T11:12:56.923Z,10.05
2022-11-25T11:13:57.067Z,10.06
2022-11-25T11:14:57.159Z,10.07
2022-11-25T11:15:57.327Z,10.09
2022-11-25T11:16:57.371Z,10.13
2022-11-25T11:17:57.541Z,10.17
2022-11-25T11:18:57.672Z,10.21
2022-11-25T11:19:57.759Z,10.26
2022-11-25T11:20:57.908Z,10.29
2022-11-25T11:21:58.015Z,10.29
2022-11-25T11:22:58.101Z,10.28
2022-11-25T11:23:58.211Z,10.28
2022-11-25T11:24:58.355Z,10.31
2022-11-25T11:25:58.441Z,10.36
2022-11-25T11:26:58.547Z,10.41
2022-11-25T11:27:58.657Z,10.47
2022-11-25T11:28:58.870Z,10.51
2022-11-25T11:29:58.847Z,10.47
2022-11-25T11:30:59.004Z,10.42
2022-11-25T11:31:59.065Z,10.41
2022-11-25T11:32:59.244Z,10.42
2022-11-25T11:34:03.076Z,10.42
2022-11-25T11:34:59.493Z,10.40
2022-11-25T11:35:59.656Z,10.38
2022-11-25T11:36:59.748Z,10.33
2022-11-25T11:37:59.837Z,10.29
2022-11-25T11:39:00.002Z,10.27
2022-11-25T11:40:00.204Z,10.29
2022-11-25T11:41:00.213Z,10.32
2022-11-25T11:42:00.284Z,10.33
2022-11-25T11:43:00.442Z,10.33
2022-11-25T11:44:00.553Z,10.32
2022-11-25T11:45:00.664Z,10.29
2022-11-25T11:46:00.763Z,10.28
2022-11-25T11:47:00.917Z,10.31
2022-11-25T11:48:01.026Z,10.35
2022-11-25T11:49:01.220Z,10.40
2022-11-25T11:50:01.304Z,10.43
2022-11-25T11:51:01.444Z,10.46
2022-11-25T11:52:01.606Z,10.50
2022-11-25T11:53:01.722Z,10.55
2022-11-25T11:54:01.872Z,10.61
2022-11-25T11:55:01.998Z,10.65
2022-11-25T11:57:03.195Z,10.68
2022-11-25T11:58:02.359Z,10.63
2022-11-25T11:59:02.504Z,10.55
2022-11-25T12:00:02.542Z,10.48
2022-11-25T12:01:02.647Z,10.41
2022-11-25T12:02:02.850Z,10.35
2022-11-25T12:03:02.956Z,10.31
2022-11-25T12:04:03.049Z,10.27
2022-11-25T12:05:03.171Z,10.24
2022-11-25T12:06:03.277Z,10.22
2022-11-25T12:07:03.379Z,10.20
2022-11-25T12:08:03.557Z,10.18
2022-11-25T12:09:03.658Z,10.14
2022-11-25T12:10:03.773Z,10.11
2022-11-25T12:11:03.867Z,10.11
2022-11-25T12:12:03.988Z,10.13
2022-11-25T12:13:04.146Z,10.14
2022-11-25T12:14:04.256Z,10.15
2022-11-25T12:15:04.362Z,10.16
2022-11-25T12:16:04.478Z,10.16
2022-11-25T12:17:04.616Z,10.14
2022-11-25T12:18:04.648Z,10.10
2022-11-25T12:19:05.325Z,10.08
2022-11-25T12:20:04.920Z,10.07
2022-11-25T12:21:04.994Z,10.07
2022-11-25T12:22:05.141Z,10.07
2022-11-25T12:23:05.246Z,10.08
2022-11-25T12:24:05.395Z,10.11
2022-11-25T12:25:05.504Z,10.16
2022-11-25T12:26:05.625Z,10.21
2022-11-25T12:27:05.724Z,10.21
2022-11-25T12:28:05.823Z,10.21
2022-11-25T12:29:05.983Z,10.22
2022-11-25T12:30:06.035Z,10.24
2022-11-25T12:31:06.296Z,10.27
2022-11-25T12:32:06.368Z,10.30
2022-11-25T12:33:06.444Z,10.30
2022-11-25T12:34:06.712Z,10.29
2022-11-25T12:35:06.692Z,10.31
2022-11-25T12:36:06.819Z,10.34
2022-11-25T12:37:11.987Z,10.37
2022-11-25T12:38:08.061Z,10.39
2022-11-25T12:39:07.211Z,10.41
2022-11-25T12:40:07.322Z,10.40
2022-11-25T12:41:07.461Z,10.39
2022-11-25T12:42:07.552Z,10.38
2022-11-25T12:43:07.690Z,10.38
2022-11-25T12:44:07.841Z,10.38
2022-11-25T12:45:08.029Z,10.38
2022-11-25T12:46:08.135Z,10.39
2022-11-25T12:47:08.228Z,10.39
2022-11-25T12:48:08.308Z,10.40
2022-11-25T12:49:08.479Z,10.42
2022-11-25T12:50:08.595Z,10.47
2022-11-25T12:51:08.738Z,10.52
2022-11-25T12:52:08.827Z,10.55
2022-11-25T12:53:08.988Z,10.55
2022-11-25T12:54:09.117Z,10.57
2022-11-25T12:55:09.244Z,10.62
2022-11-25T12:56:09.337Z,10.68
2022-11-25T12:57:09.467Z,10.76
2022-11-25T12:58:09.632Z,10.84
2022-11-25T12:59:09.687Z,10.89
2022-11-25T13:01:10.959Z,10.92
2022-11-25T13:02:10.063Z,10.93
2022-11-25T13:03:13.874Z,10.95
2022-11-25T13:04:10.285Z,10.97
2022-11-25T13:05:38.924Z,11.02
2022-11-25T13:06:11.497Z,11.08
2022-11-25T13:07:10.658Z,11.11
2022-11-25T13:08:10.738Z,11.14
2022-11-25T13:09:10.903Z,11.15
2022-11-25T13:10:10.996Z,11.16
2022-11-25T13:11:11.488Z,11.17
2022-11-25T13:12:11.673Z,11.17
2022-11-25T13:13:16.338Z,11.17
2022-11-25T13:14:12.917Z,11.13
2022-11-25T13:15:12.152Z,11.11
2022-11-25T13:16:12.293Z,11.10
2022-11-25T13:17:12.393Z,11.11